Time;durP1;ratioP1;P1;durP2;ratioP2;P2;SDS_P1;SDS_P2;PMS_P1;PMS_P2;Temp;Humidity;BMP_temperature;BMP_pressure;BME280_temperature;BME280_humidity;BME280_pressure;Samples;Min_cycle;Max_cycle;Signal;HPM_P1;HPM_P2
2024/01/25 00:00:11;;;;;;;;;;;;;;;8.74;60.49;98921.31;5017223;28;19977;-71
2024/01/25 00:02:59;;;;;;;;;;;;;;;8.72;60.65;98923.44;5001985;28;20023;-71
2024/01/25 00:05:49;;;;;;;;;;;;;;;8.79;60.61;98923.16;5012981;28;20440;-71
2024/01/25 00:08:37;;;;;;;;;;;;;;;8.78;60.31;98922.34;5018041;28;19972;-71
2024/01/25 00:11:25;;;;;;;;;;;;;;;8.73;60.81;98922.34;5005261;28;19932;-71
2024/01/25 00:14:13;;;;;;;;;;;;;;;8.75;60.91;98925.63;5008366;28;20009;-71
2024/01/25 00:17:01;;;;;;;;;;;;;;;8.65;61.25;98925.66;5015955;28;19931;-72
2024/01/25 00:19:50;;;;;;;;;;;;;;;8.69;60.88;98917.78;5002719;28;19936;-72
2024/01/25 00:22:41;;;;;;;;;;;;;;;8.69;61.28;98910.47;5020690;28;19975;-71
2024/01/25 00:25:29;;;;;;;;;;;;;;;8.65;61.18;98903.97;5025258;28;19944;-71
2024/01/25 00:28:18;;;;;;;;;;;;;;;8.71;61.35;98902.06;5012390;28;19933;-71
2024/01/25 00:31:06;;;;;;;;;;;;;;;8.72;61.90;98899.06;5017248;28;19925;-71
2024/01/25 00:33:54;;;;;;;;;;;;;;;8.71;61.34;98902.88;4999413;28;19948;-72
2024/01/25 00:36:43;;;;;;;;;;;;;;;8.72;61.54;98893.66;5005277;28;19952;-72
2024/01/25 00:39:33;;;;;;;;;;;;;;;8.72;61.03;98893.66;5009790;28;20304;-71
2024/01/25 00:42:22;;;;;;;;;;;;;;;8.71;61.44;98902.88;5018541;28;19926;-71
2024/01/25 00:45:11;;;;;;;;;;;;;;;8.70;61.43;98901.25;5008008;28;19930;-72
2024/01/25 00:47:59;;;;;;;;;;;;;;;8.69;61.32;98898.81;4998489;28;19932;-71
2024/01/25 00:50:48;;;;;;;;;;;;;;;8.64;61.55;98911.28;5003329;28;19940;-71
2024/01/25 00:53:36;;;;;;;;;;;;;;;8.61;61.75;98897.47;5023586;28;19936;-71
2024/01/25 00:56:27;;;;;;;;;;;;;;;8.68;61.69;98891.75;5015928;28;19926;-72
2024/01/25 00:59:15;;;;;;;;;;;;;;;8.64;61.61;98891.53;4997830;28;20341;-71
2024/01/25 01:02:03;;;;;;;;;;;;;;;8.56;61.76;98881.22;5010039;28;19933;-71
2024/01/25 01:04:55;;;;;;;;;;;;;;;8.60;61.74;98877.69;5018259;28;20007;-71
2024/01/25 01:07:44;;;;;;;;;;;;;;;8.60;61.77;98879.59;5030273;28;19929;-71
2024/01/25 01:10:33;;;;;;;;;;;;;;;8.65;61.54;98876.88;5047680;28;19952;-72
2024/01/25 01:13:22;;;;;;;;;;;;;;;8.62;61.62;98872.00;5022763;28;20012;-72
2024/01/25 01:16:11;;;;;;;;;;;;;;;8.70;61.59;98870.66;4999187;28;19933;-71
2024/01/25 01:19:05;;;;;;;;;;;;;;;8.69;61.76;98866.31;5014140;28;19968;-72
2024/01/25 01:21:53;;;;;;;;;;;;;;;8.76;61.28;98867.63;5009489;28;19929;-71
2024/01/25 01:24:41;;;;;;;;;;;;;;;8.72;61.47;98890.13;5004553;28;19937;-71
2024/01/25 01:27:29;;;;;;;;;;;;;;;8.72;61.85;98882.81;4999689;28;20278;-71
2024/01/25 01:30:19;;;;;;;;;;;;;;;8.75;61.41;98885.00;5002042;28;19926;-71
2024/01/25 01:33:07;;;;;;;;;;;;;;;8.70;61.66;98890.41;5005575;28;19926;-71
2024/01/25 01:35:55;;;;;;;;;;;;;;;8.70;61.77;98885.00;5026680;28;19925;-71
2024/01/25 01:38:43;;;;;;;;;;;;;;;8.71;61.70;98878.50;5002086;28;19932;-70
2024/01/25 01:41:31;;;;;;;;;;;;;;;8.75;61.58;98882.28;4997796;28;20218;-71
2024/01/25 01:44:20;;;;;;;;;;;;;;;8.76;61.39;98881.19;5015419;28;19932;-72
2024/01/25 01:47:10;;;;;;;;;;;;;;;8.73;61.87;98878.19;5014089;28;19933;-71
2024/01/25 01:49:58;;;;;;;;;;;;;;;8.72;61.59;98871.97;5012575;28;20486;-71
2024/01/25 01:52:47;;;;;;;;;;;;;;;8.65;61.38;98874.19;5007269;28;19932;-71
2024/01/25 01:55:35;;;;;;;;;;;;;;;8.57;61.69;98864.69;4994907;28;19925;-70
2024/01/25 01:58:23;;;;;;;;;;;;;;;8.59;61.76;98864.44;5014633;28;20344;-71
2024/01/25 02:01:12;;;;;;;;;;;;;;;8.52;62.13;98862.03;5002921;28;20290;-71
2024/01/25 02:04:02;;;;;;;;;;;;;;;8.55;61.77;98858.75;5002273;28;19925;-71
2024/01/25 02:06:50;;;;;;;;;;;;;;;8.49;62.03;98869.88;4998561;28;20365;-71
2024/01/25 02:09:39;;;;;;;;;;;;;;;8.51;61.74;98870.41;5002283;28;20309;-72
2024/01/25 02:12:27;;;;;;;;;;;;;;;8.47;61.80;98872.03;5000899;28;19948;-71
2024/01/25 02:15:15;;;;;;;;;;;;;;;8.51;61.75;98876.63;5006088;28;20292;-71
2024/01/25 02:18:03;;;;;;;;;;;;;;;8.40;62.06;98870.41;5008043;28;19929;-71
2024/01/25 02:20:53;;;;;;;;;;;;;;;8.38;62.01;98878.03;5008314;28;20083;-71
2024/01/25 02:23:45;;;;;;;;;;;;;;;8.40;61.91;98875.84;5011434;28;19932;-71
2024/01/25 02:26:33;;;;;;;;;;;;;;;8.45;61.98;98876.91;5017664;28;19932;-71
2024/01/25 02:29:22;;;;;;;;;;;;;;;8.35;62.48;98870.41;4998466;28;20016;-71
2024/01/25 02:32:10;;;;;;;;;;;;;;;8.37;62.23;98873.69;4998071;28;20008;-71
2024/01/25 02:34:58;;;;;;;;;;;;;;;8.37;62.80;98876.41;5014908;28;19940;-71
2024/01/25 02:37:47;;;;;;;;;;;;;;;8.37;62.42;98887.22;5015483;28;19925;-71
2024/01/25 02:40:39;;;;;;;;;;;;;;;8.44;62.39;98880.72;5013468;28;20012;-72
2024/01/25 02:43:27;;;;;;;;;;;;;;;8.39;62.33;98886.94;5005216;28;19990;-72
2024/01/25 02:46:15;;;;;;;;;;;;;;;8.39;62.14;98882.34;5003980;28;20063;-72
2024/01/25 02:49:03;;;;;;;;;;;;;;;8.37;62.32;98892.66;5003118;28;19925;-72
2024/01/25 02:51:52;;;;;;;;;;;;;;;8.46;62.09;98897.50;5014065;28;19940;-71
2024/01/25 02:54:40;;;;;;;;;;;;;;;8.43;61.76;98887.22;4988826;28;19941;-72
2024/01/25 02:57:31;;;;;;;;;;;;;;;8.33;61.82;98891.53;5004414;28;19937;-72
2024/01/25 03:00:19;;;;;;;;;;;;;;;8.32;61.91;98894.53;5018371;28;19926;-71
2024/01/25 03:03:07;;;;;;;;;;;;;;;8.29;61.98;98890.44;4999377;28;19933;-72
2024/01/25 03:05:56;;;;;;;;;;;;;;;8.37;61.56;98898.06;5000194;28;19925;-72
2024/01/25 03:08:44;;;;;;;;;;;;;;;8.34;61.56;98895.03;5001673;28;19992;-72
2024/01/25 03:11:33;;;;;;;;;;;;;;;8.31;61.51;98899.13;5012824;28;20055;-72
2024/01/25 03:14:22;;;;;;;;;;;;;;;8.33;61.25;98899.66;5017026;28;19926;-71
2024/01/25 03:17:12;;;;;;;;;;;;;;;8.30;61.08;98894.78;5020054;28;19925;-71
2024/01/25 03:20:00;;;;;;;;;;;;;;;8.28;61.05;98898.84;5003974;28;19993;-71
2024/01/25 03:22:48;;;;;;;;;;;;;;;8.22;61.33;98905.34;5004899;28;19926;-71
2024/01/25 03:25:36;;;;;;;;;;;;;;;8.26;61.13;98912.66;5020100;28;19933;-71
2024/01/25 03:28:24;;;;;;;;;;;;;;;8.21;60.93;98901.84;5020419;28;19925;-71
2024/01/25 03:31:15;;;;;;;;;;;;;;;8.18;61.22;98915.91;5021847;28;19933;-71
2024/01/25 03:34:04;;;;;;;;;;;;;;;8.21;61.34;98909.16;5007935;28;20020;-71
2024/01/25 03:36:54;;;;;;;;;;;;;;;8.23;61.17;98913.19;5026991;28;19925;-71
2024/01/25 03:39:42;;;;;;;;;;;;;;;8.18;61.34;98915.91;5003081;28;19964;-72
2024/01/25 03:42:31;;;;;;;;;;;;;;;8.23;61.19;98920.50;5021289;28;19929;-71
2024/01/25 03:45:19;;;;;;;;;;;;;;;8.22;61.06;98922.41;5007674;28;19925;-71
2024/01/25 03:48:09;;;;;;;;;;;;;;;8.17;61.41;98914.28;5006952;28;19925;-72
2024/01/25 03:50:57;;;;;;;;;;;;;;;8.19;61.18;98912.09;5005934;28;19933;-72
2024/01/25 03:53:45;;;;;;;;;;;;;;;8.16;61.46;98930.81;5018414;28;19936;-72
2024/01/25 03:56:33;;;;;;;;;;;;;;;8.15;61.31;98927.28;5009930;28;19987;-72
2024/01/25 03:59:22;;;;;;;;;;;;;;;8.10;61.37;98924.56;5026427;28;19926;-72
2024/01/25 04:02:10;;;;;;;;;;;;;;;8.10;61.56;98917.28;5008102;28;19972;-72
2024/01/25 04:05:00;;;;;;;;;;;;;;;8.10;61.62;98928.09;5007670;28;19933;-70
2024/01/25 04:07:49;;;;;;;;;;;;;;;8.11;61.29;98931.59;5021553;28;19975;-70
2024/01/25 04:10:37;;;;;;;;;;;;;;;8.07;61.10;98927.81;4990506;28;19925;-70
2024/01/25 04:13:25;;;;;;;;;;;;;;;8.12;61.49;98933.22;4990412;28;19929;-70
2024/01/25 04:16:14;;;;;;;;;;;;;;;8.18;60.91;98931.34;5005571;28;19936;-70
2024/01/25 04:19:03;;;;;;;;;;;;;;;8.15;61.00;98932.69;5023943;28;20022;-70
2024/01/25 04:21:53;;;;;;;;;;;;;;;8.14;60.86;98925.63;5017130;28;20301;-70
2024/01/25 04:24:41;;;;;;;;;;;;;;;8.11;60.82;98931.59;5008321;28;20025;-70
2024/01/25 04:27:29;;;;;;;;;;;;;;;8.13;61.19;98934.84;5003082;28;19925;-70
2024/01/25 04:30:18;;;;;;;;;;;;;;;8.14;60.89;98933.75;5023844;28;19940;-70
2024/01/25 04:33:07;;;;;;;;;;;;;;;8.14;61.25;98929.16;5029098;28;19924;-71
2024/01/25 04:35:55;;;;;;;;;;;;;;;8.12;61.00;98922.41;5037284;28;19932;-71
2024/01/25 04:38:46;;;;;;;;;;;;;;;8.20;61.16;98923.75;5031361;28;19928;-72
2024/01/25 04:41:34;;;;;;;;;;;;;;;8.16;60.79;98933.50;5005592;28;19933;-71
2024/01/25 04:44:22;;;;;;;;;;;;;;;8.17;61.21;98935.13;5011020;28;19925;-72
2024/01/25 04:47:11;;;;;;;;;;;;;;;8.13;61.01;98940.25;5014719;28;19936;-72
2024/01/25 04:49:59;;;;;;;;;;;;;;;8.08;61.26;98943.78;4994566;28;19933;-72
2024/01/25 04:52:47;;;;;;;;;;;;;;;8.08;61.26;98948.38;5027109;28;20023;-72
2024/01/25 04:55:37;;;;;;;;;;;;;;;8.07;61.37;98957.59;4993776;28;19926;-72
2024/01/25 04:58:28;;;;;;;;;;;;;;;8.11;61.11;98953.25;5000736;28;20047;-71
2024/01/25 05:01:16;;;;;;;;;;;;;;;8.07;61.51;98963.81;5009945;28;20023;-72
2024/01/25 05:04:05;;;;;;;;;;;;;;;8.08;61.52;98959.19;5011889;28;19936;-71
2024/01/25 05:06:53;;;;;;;;;;;;;;;8.15;61.26;98976.00;5011514;28;20456;-71
2024/01/25 05:09:41;;;;;;;;;;;;;;;8.15;61.16;98970.59;5012143;28;20042;-71
2024/01/25 05:12:31;;;;;;;;;;;;;;;8.20;61.55;98980.59;4989869;28;19926;-72
2024/01/25 05:15:19;;;;;;;;;;;;;;;8.20;61.33;98986.81;5008595;28;19930;-72
2024/01/25 05:18:08;;;;;;;;;;;;;;;8.34;61.01;98996.03;5017708;28;19992;-71
2024/01/25 05:20:57;;;;;;;;;;;;;;;8.25;61.28;99002.25;5009435;28;19925;-72
2024/01/25 05:23:46;;;;;;;;;;;;;;;8.43;60.87;99007.19;5009708;28;19979;-72
2024/01/25 05:26:34;;;;;;;;;;;;;;;8.36;60.85;99003.91;4998422;28;19936;-72
2024/01/25 05:29:24;;;;;;;;;;;;;;;8.38;60.88;99005.28;5011412;28;20007;-72
2024/01/25 05:32:14;;;;;;;;;;;;;;;8.43;61.04;98999.06;5010190;28;19928;-72
2024/01/25 05:35:02;;;;;;;;;;;;;;;8.42;61.13;99002.06;5019397;28;19970;-72
2024/01/25 05:37:50;;;;;;;;;;;;;;;8.38;61.20;99009.88;5005162;28;19939;-72
2024/01/25 05:40:38;;;;;;;;;;;;;;;8.27;61.64;99019.06;5010262;28;19925;-71
2024/01/25 05:43:27;;;;;;;;;;;;;;;8.45;61.22;98996.06;5001479;28;20025;-72
2024/01/25 05:46:16;;;;;;;;;;;;;;;8.45;61.23;98991.47;5006439;28;20605;-72
2024/01/25 05:49:04;;;;;;;;;;;;;;;8.38;61.18;99008.00;5001373;28;20031;-72
2024/01/25 05:51:53;;;;;;;;;;;;;;;8.40;61.18;99030.19;5010867;28;19948;-72
2024/01/25 05:54:41;;;;;;;;;;;;;;;8.39;61.15;99047.53;5015838;28;19991;-72
2024/01/25 05:57:29;;;;;;;;;;;;;;;8.40;61.59;99038.31;5008764;28;20278;-72
2024/01/25 06:00:17;;;;;;;;;;;;;;;8.40;61.33;99032.91;5015183;28;20023;-72
2024/01/25 06:03:10;;;;;;;;;;;;;;;8.38;61.66;99028.84;5006655;28;19932;-72
2024/01/25 06:05:58;;;;;;;;;;;;;;;8.37;61.50;99036.16;5002540;28;20044;-71
2024/01/25 06:08:47;;;;;;;;;;;;;;;8.36;61.76;99055.34;5005255;28;19933;-72
2024/01/25 06:11:42;;;;;;;;;;;;;;;8.27;62.16;99055.06;5006002;28;19932;-73
2024/01/25 06:14:30;;;;;;;;;;;;;;;8.25;62.20;99057.22;5010492;28;20432;-79
2024/01/25 06:17:18;;;;;;;;;;;;;;;8.38;61.75;99059.44;5009342;28;19968;-72
2024/01/25 06:20:10;;;;;;;;;;;;;;;8.37;61.66;99067.84;5001480;28;20298;-72
2024/01/25 06:22:58;;;;;;;;;;;;;;;8.34;62.12;99069.16;5002706;28;19933;-73
2024/01/25 06:25:47;;;;;;;;;;;;;;;8.41;61.92;99074.31;4990723;28;20330;-84
2024/01/25 06:28:35;;;;;;;;;;;;;;;8.42;62.02;99073.25;5014608;28;19933;-73
2024/01/25 06:31:23;;;;;;;;;;;;;;;8.53;61.78;99065.97;4985357;28;20093;-78
2024/01/25 06:34:12;;;;;;;;;;;;;;;8.56;61.35;99068.13;5014742;28;19944;-76
2024/01/25 06:37:02;;;;;;;;;;;;;;;8.46;61.47;99077.03;5009320;28;19925;-79
2024/01/25 06:39:50;;;;;;;;;;;;;;;8.57;61.10;99077.88;5007541;28;20308;-76
2024/01/25 06:42:38;;;;;;;;;;;;;;;8.59;61.37;99063.00;4984302;28;19929;-77
2024/01/25 06:45:26;;;;;;;;;;;;;;;8.62;60.69;99056.19;4997812;28;19929;-76
2024/01/25 06:48:15;;;;;;;;;;;;;;;8.54;61.12;99054.84;5006376;28;19933;-86
2024/01/25 06:51:03;;;;;;;;;;;;;;;8.39;61.28;99063.78;5006406;28;19925;-83
2024/01/25 06:53:52;;;;;;;;;;;;;;;8.33;61.57;99075.66;5002075;28;19932;-76
2024/01/25 06:56:40;;;;;;;;;;;;;;;8.38;61.24;99077.59;5002310;28;19932;-76
2024/01/25 06:59:29;;;;;;;;;;;;;;;8.32;61.39;99079.44;4987020;28;19930;-76
2024/01/25 07:02:17;;;;;;;;;;;;;;;8.20;61.83;99081.56;5000279;28;20297;-76
2024/01/25 07:05:06;;;;;;;;;;;;;;;8.39;61.17;99090.03;4993577;28;20351;-75
2024/01/25 07:07:54;;;;;;;;;;;;;;;8.12;61.95;99090.22;5000896;28;20403;-76
2024/01/25 07:10:45;;;;;;;;;;;;;;;8.20;61.84;99086.16;4996037;28;19926;-76
2024/01/25 07:13:33;;;;;;;;;;;;;;;8.11;62.34;99091.31;4999242;28;19937;-76
2024/01/25 07:16:23;;;;;;;;;;;;;;;8.13;61.83;99089.94;4999414;28;20016;-77
2024/01/25 07:19:12;;;;;;;;;;;;;;;7.94;62.82;99090.72;5004746;28;19929;-76
2024/01/25 07:22:01;;;;;;;;;;;;;;;7.98;62.68;99097.19;5013062;28;20440;-82
2024/01/25 07:24:51;;;;;;;;;;;;;;;7.86;63.00;99090.13;5008452;28;20071;-76
2024/01/25 07:27:41;;;;;;;;;;;;;;;7.86;62.90;99100.94;4997649;28;19926;-76
2024/01/25 07:30:30;;;;;;;;;;;;;;;7.68;63.63;99109.53;4992784;28;20304;-75
2024/01/25 07:33:18;;;;;;;;;;;;;;;7.67;63.92;99105.19;4987724;28;19925;-75
2024/01/25 07:36:06;;;;;;;;;;;;;;;7.59;64.12;99121.91;4992034;28;20020;-75
2024/01/25 07:38:55;;;;;;;;;;;;;;;7.68;64.01;99116.84;4991143;28;19933;-77
2024/01/25 07:41:43;;;;;;;;;;;;;;;7.64;64.09;99124.66;5004633;28;20367;-75
2024/01/25 07:44:32;;;;;;;;;;;;;;;7.76;63.77;99130.66;5000583;28;19926;-76
2024/01/25 07:47:20;;;;;;;;;;;;;;;7.59;64.40;99124.63;5019216;28;19914;-75
2024/01/25 07:50:09;;;;;;;;;;;;;;;7.61;64.45;99125.16;5016182;28;19921;-75
2024/01/25 07:52:57;;;;;;;;;;;;;;;7.63;64.35;99131.13;5017688;28;20401;-75
2024/01/25 07:55:46;;;;;;;;;;;;;;;7.52;64.44;99124.03;5010585;28;20412;-76
2024/01/25 07:58:34;;;;;;;;;;;;;;;7.47;64.69;99124.00;5005929;28;19925;-76
2024/01/25 08:01:26;;;;;;;;;;;;;;;7.59;64.53;99125.44;5014134;28;19925;-75
2024/01/25 08:04:14;;;;;;;;;;;;;;;7.53;64.56;99134.59;5019736;28;20420;-77
2024/01/25 08:07:03;;;;;;;;;;;;;;;7.57;64.87;99138.41;4996334;28;19960;-76
2024/01/25 08:09:52;;;;;;;;;;;;;;;7.59;64.35;99135.44;5011701;28;20070;-76
2024/01/25 08:12:43;;;;;;;;;;;;;;;7.59;64.36;99133.53;4999910;28;20297;-80
2024/01/25 08:15:35;;;;;;;;;;;;;;;7.67;64.10;99136.81;5003973;28;19957;-76
2024/01/25 08:18:27;;;;;;;;;;;;;;;7.67;63.75;99134.94;5018959;28;19960;-77
2024/01/25 08:21:15;;;;;;;;;;;;;;;7.78;63.65;99135.81;5015401;28;19939;-75
2024/01/25 08:24:04;;;;;;;;;;;;;;;7.70;63.65;99136.31;5009815;28;20353;-78
2024/01/25 08:26:52;;;;;;;;;;;;;;;7.77;63.78;99143.09;5006897;28;19933;-77
2024/01/25 08:29:40;;;;;;;;;;;;;;;7.79;63.66;99140.97;4995321;28;19974;-76
2024/01/25 08:32:29;;;;;;;;;;;;;;;7.76;63.73;99146.06;5017581;28;19971;-78
2024/01/25 08:35:19;;;;;;;;;;;;;;;7.74;63.19;99143.63;5012868;28;20377;-76
2024/01/25 08:38:08;;;;;;;;;;;;;;;7.76;63.19;99144.19;5024174;28;20022;-76
2024/01/25 08:40:56;;;;;;;;;;;;;;;7.69;63.65;99145.50;5014825;28;19925;-76
2024/01/25 08:43:44;;;;;;;;;;;;;;;7.58;63.60;99140.03;5011772;28;20338;-76
2024/01/25 08:46:32;;;;;;;;;;;;;;;7.69;63.33;99154.44;5003917;28;19929;-76
2024/01/25 08:49:21;;;;;;;;;;;;;;;7.78;63.17;99160.16;5020380;28;19931;-75
2024/01/25 08:52:10;;;;;;;;;;;;;;;7.71;63.24;99162.28;5006053;28;20445;-75
2024/01/25 08:54:59;;;;;;;;;;;;;;;7.73;63.02;99173.66;5002487;28;19925;-76
2024/01/25 08:57:48;;;;;;;;;;;;;;;7.68;63.26;99185.25;5020715;28;19935;-75
2024/01/25 09:00:37;;;;;;;;;;;;;;;7.70;62.98;99169.56;5008601;28;20064;-76
2024/01/25 09:03:25;;;;;;;;;;;;;;;7.84;62.81;99178.06;5000785;28;19925;-76
2024/01/25 09:06:15;;;;;;;;;;;;;;;7.96;62.37;99178.66;5009909;28;19925;-77
2024/01/25 09:09:05;;;;;;;;;;;;;;;7.88;62.45;99179.97;5015408;28;19941;-76
2024/01/25 09:11:54;;;;;;;;;;;;;;;7.85;62.59;99171.56;5011604;28;19933;-76
2024/01/25 09:14:42;;;;;;;;;;;;;;;7.78;62.63;99177.22;5007904;28;20085;-76
2024/01/25 09:17:30;;;;;;;;;;;;;;;7.75;62.89;99177.72;5012635;28;19968;-76
2024/01/25 09:20:18;;;;;;;;;;;;;;;7.85;62.81;99177.78;5002362;28;20012;-77
2024/01/25 09:23:07;;;;;;;;;;;;;;;7.89;62.61;99172.66;5003206;28;20385;-77
2024/01/25 09:25:56;;;;;;;;;;;;;;;7.92;62.47;99182.13;5001811;28;19925;-76
2024/01/25 09:28:46;;;;;;;;;;;;;;;8.02;61.88;99174.06;5013231;28;20305;-92
2024/01/25 09:31:34;;;;;;;;;;;;;;;8.12;61.69;99176.84;5009872;28;20300;-78
2024/01/25 09:34:23;;;;;;;;;;;;;;;8.07;61.54;99174.91;5007025;28;19944;-77
2024/01/25 09:37:11;;;;;;;;;;;;;;;8.22;61.01;99181.47;5005437;28;20000;-75
2024/01/25 09:39:59;;;;;;;;;;;;;;;8.20;60.88;99181.72;5003066;28;19925;-75
2024/01/25 09:42:49;;;;;;;;;;;;;;;8.05;61.02;99192.50;5007058;28;19936;-75
2024/01/25 09:45:37;;;;;;;;;;;;;;;8.14;60.27;99191.72;5004649;28;19925;-75
2024/01/25 09:48:26;;;;;;;;;;;;;;;8.21;60.22;99198.81;5007146;28;20625;-76
2024/01/25 09:51:15;;;;;;;;;;;;;;;8.23;59.79;99197.44;4996124;28;19926;-76
2024/01/25 09:54:03;;;;;;;;;;;;;;;8.29;59.26;99204.50;4998760;28;19945;-76
2024/01/25 09:56:52;;;;;;;;;;;;;;;8.34;59.28;99204.53;5019980;28;19925;-76
2024/01/25 09:59:43;;;;;;;;;;;;;;;8.28;59.56;99197.47;5007584;28;19925;-76
2024/01/25 10:02:31;;;;;;;;;;;;;;;8.26;59.66;99205.06;5010817;28;19987;-77
2024/01/25 10:05:20;;;;;;;;;;;;;;;8.42;58.73;99207.84;4999517;28;19929;-76
2024/01/25 10:08:13;;;;;;;;;;;;;;;8.50;58.46;99204.63;5013543;28;19925;-76
2024/01/25 10:11:03;;;;;;;;;;;;;;;8.56;58.15;99208.97;4998396;28;19925;-76
2024/01/25 10:13:52;;;;;;;;;;;;;;;8.45;57.83;99212.72;5017163;28;20071;-76
2024/01/25 10:16:42;;;;;;;;;;;;;;;8.35;58.32;99208.84;5015588;28;19929;-75
2024/01/25 10:19:32;;;;;;;;;;;;;;;8.36;57.89;99199.72;5002298;28;19961;-75
2024/01/25 10:22:22;;;;;;;;;;;;;;;8.36;57.32;99207.84;5011212;28;20444;-75
2024/01/25 10:25:12;;;;;;;;;;;;;;;8.32;57.67;99203.19;5010940;28;19933;-76
2024/01/25 10:28:01;;;;;;;;;;;;;;;8.51;57.60;99206.25;4994742;28;20012;-76
2024/01/25 10:30:49;;;;;;;;;;;;;;;8.53;57.01;99204.91;5018362;28;19933;-81
2024/01/25 10:33:39;;;;;;;;;;;;;;;8.59;57.17;99205.75;5000864;28;19980;-76
2024/01/25 10:36:28;;;;;;;;;;;;;;;8.68;57.19;99206.03;5010275;28;20305;-78
2024/01/25 10:39:16;;;;;;;;;;;;;;;8.76;56.18;99214.44;5014855;28;19933;-77
2024/01/25 10:42:06;;;;;;;;;;;;;;;8.59;55.51;99208.44;5010529;28;20405;-94
2024/01/25 10:44:54;;;;;;;;;;;;;;;8.52;54.62;99202.44;5030783;28;20284;-93
2024/01/25 10:47:44;;;;;;;;;;;;;;;8.50;55.36;99197.31;5014012;28;19929;-76
2024/01/25 10:50:34;;;;;;;;;;;;;;;8.53;55.27;99194.09;5002207;28;19936;-73
2024/01/25 10:53:24;;;;;;;;;;;;;;;8.71;54.91;99211.72;4996632;28;19925;-73
2024/01/25 10:56:13;;;;;;;;;;;;;;;8.73;54.69;99201.41;5010652;28;19932;-76
2024/01/25 10:59:03;;;;;;;;;;;;;;;8.85;53.84;99187.66;5023718;28;19909;-74
2024/01/25 11:01:51;;;;;;;;;;;;;;;8.88;54.02;99185.19;5022116;28;20395;-75
2024/01/25 11:04:41;;;;;;;;;;;;;;;8.97;53.28;99181.97;5013977;28;19935;-75
2024/01/25 11:07:30;;;;;;;;;;;;;;;8.91;52.27;99178.44;5014971;28;20016;-78
2024/01/25 11:10:19;;;;;;;;;;;;;;;8.91;52.44;99181.16;5011147;28;20410;-76
2024/01/25 11:13:14;;;;;;;;;;;;;;;8.85;52.97;99174.91;5004846;28;19925;-74
2024/01/25 11:16:14;;;;;;;;;;;;;;;8.91;53.22;99173.84;5009073;28;19925;-75
2024/01/25 11:19:05;;;;;;;;;;;;;;;8.86;53.02;99168.41;5010344;28;20358;-74
2024/01/25 11:21:54;;;;;;;;;;;;;;;8.90;53.18;99177.63;5017091;28;19925;-74
2024/01/25 11:24:45;;;;;;;;;;;;;;;9.01;53.16;99162.19;4999390;28;20012;-74
2024/01/25 11:27:34;;;;;;;;;;;;;;;9.02;53.26;99161.09;5010014;28;20024;-83
2024/01/25 11:30:22;;;;;;;;;;;;;;;9.13;53.44;99157.31;5014311;28;19925;-75
2024/01/25 11:33:10;;;;;;;;;;;;;;;9.12;52.43;99174.66;5000348;28;19925;-75
2024/01/25 11:35:59;;;;;;;;;;;;;;;9.08;52.49;99178.19;4996881;28;20016;-75
2024/01/25 11:38:47;;;;;;;;;;;;;;;9.17;52.34;99182.00;5004822;28;19948;-74
2024/01/25 11:41:36;;;;;;;;;;;;;;;9.18;52.78;99184.41;4989306;28;19932;-73
2024/01/25 11:44:24;;;;;;;;;;;;;;;9.27;53.11;99181.16;5003007;28;20051;-74
2024/01/25 11:47:14;;;;;;;;;;;;;;;9.41;52.32;99174.91;5003621;28;19997;-74
2024/01/25 11:50:02;;;;;;;;;;;;;;;9.35;51.87;99186.84;5002967;28;19936;-75
2024/01/25 11:52:50;;;;;;;;;;;;;;;9.32;52.20;99198.25;5000127;28;20546;-74
2024/01/25 11:55:39;;;;;;;;;;;;;;;9.31;51.20;99174.09;4995139;28;19956;-74
2024/01/25 11:58:28;;;;;;;;;;;;;;;9.19;51.96;99196.88;5012334;28;19925;-74
2024/01/25 12:01:20;;;;;;;;;;;;;;;9.20;51.69;99186.84;5005950;28;19933;-74
2024/01/25 12:04:09;;;;;;;;;;;;;;;9.20;52.00;99192.28;5000820;28;19925;-76
2024/01/25 12:06:57;;;;;;;;;;;;;;;9.19;52.22;99190.66;5008821;28;19925;-75
2024/01/25 12:09:46;;;;;;;;;;;;;;;9.07;53.01;99187.41;5014824;28;20554;-76
2024/01/25 12:12:36;;;;;;;;;;;;;;;9.03;53.41;99191.72;5006069;28;19932;-74
2024/01/25 12:15:25;;;;;;;;;;;;;;;9.11;53.68;99191.22;4999585;28;19929;-77
2024/01/25 12:18:15;;;;;;;;;;;;;;;9.17;53.96;99184.69;5021976;28;19979;-75
2024/01/25 12:21:03;;;;;;;;;;;;;;;9.11;53.76;99186.59;5016989;28;19940;-75
2024/01/25 12:23:52;;;;;;;;;;;;;;;9.04;53.48;99179.78;5000368;28;20064;-74
2024/01/25 12:26:40;;;;;;;;;;;;;;;9.15;53.51;99181.44;5009620;28;20016;-75
2024/01/25 12:29:28;;;;;;;;;;;;;;;9.16;53.35;99191.19;5003761;28;19948;-75
2024/01/25 12:32:17;;;;;;;;;;;;;;;9.12;53.38;99179.28;4998572;28;19932;-75
2024/01/25 12:35:06;;;;;;;;;;;;;;;9.07;52.61;99176.56;5015014;28;19929;-76
2024/01/25 12:37:55;;;;;;;;;;;;;;;9.08;52.44;99183.59;5011903;28;20389;-76
2024/01/25 12:40:44;;;;;;;;;;;;;;;9.08;52.36;99183.59;5009248;28;20436;-75
2024/01/25 12:43:32;;;;;;;;;;;;;;;9.08;52.27;99170.06;5005382;28;19929;-75
2024/01/25 12:46:20;;;;;;;;;;;;;;;9.19;51.81;99174.38;5006523;28;19926;-76
2024/01/25 12:49:15;;;;;;;;;;;;;;;9.19;51.09;99171.69;5022699;28;19929;-75
2024/01/25 12:52:04;;;;;;;;;;;;;;;9.16;51.12;99178.47;5002672;28;19955;-75
2024/01/25 12:54:52;;;;;;;;;;;;;;;9.17;50.99;99171.16;4996704;28;20412;-75
2024/01/25 12:57:40;;;;;;;;;;;;;;;9.25;50.87;99165.16;5004039;28;19976;-75
2024/01/25 13:00:29;;;;;;;;;;;;;;;9.30;50.93;99157.03;4994141;28;19932;-77
2024/01/25 13:03:19;;;;;;;;;;;;;;;9.21;51.32;99164.06;4998048;28;20032;-77
2024/01/25 13:06:08;;;;;;;;;;;;;;;9.20;51.38;99165.16;5011246;28;19925;-75
2024/01/25 13:08:57;;;;;;;;;;;;;;;9.22;51.44;99151.34;5016471;28;20359;-76
2024/01/25 13:11:45;;;;;;;;;;;;;;;9.28;51.25;99150.25;5016308;28;20071;-76
2024/01/25 13:14:33;;;;;;;;;;;;;;;9.17;51.53;99133.19;5006254;28;20034;-75
2024/01/25 13:17:24;;;;;;;;;;;;;;;9.20;51.82;99132.63;4994110;28;20345;-76
2024/01/25 13:20:12;;;;;;;;;;;;;;;9.28;51.85;99128.56;5015059;28;19929;-76
2024/01/25 13:23:02;;;;;;;;;;;;;;;9.19;51.74;99128.28;5002063;28;19932;-75
2024/01/25 13:25:50;;;;;;;;;;;;;;;9.16;51.62;99124.25;5027178;28;20407;-75
2024/01/25 13:28:38;;;;;;;;;;;;;;;9.28;51.70;99125.84;5002449;28;19926;-76
2024/01/25 13:31:26;;;;;;;;;;;;;;;9.20;51.58;99116.34;5005240;28;19975;-77
2024/01/25 13:34:14;;;;;;;;;;;;;;;9.11;52.43;99126.97;4995805;28;19925;-92
2024/01/25 13:37:04;;;;;;;;;;;;;;;9.24;52.85;99112.03;5010055;28;19984;-76
2024/01/25 13:39:53;;;;;;;;;;;;;;;9.21;52.84;99111.75;5012003;28;19933;-76
2024/01/25 13:42:44;;;;;;;;;;;;;;;9.24;52.89;99100.38;4994683;28;20016;-74
2024/01/25 13:45:32;;;;;;;;;;;;;;;9.24;52.85;99111.22;4997971;28;19976;-74
2024/01/25 13:48:20;;;;;;;;;;;;;;;9.19;53.19;99101.19;5000502;28;20452;-73
2024/01/25 13:51:10;;;;;;;;;;;;;;;9.25;52.97;99108.22;5010084;28;20003;-74
2024/01/25 13:53:58;;;;;;;;;;;;;;;9.37;52.81;99116.06;5017839;28;19944;-79
2024/01/25 13:56:47;;;;;;;;;;;;;;;9.37;52.74;99116.06;4991581;28;20018;-76
2024/01/25 13:59:36;;;;;;;;;;;;;;;9.43;53.09;99098.72;4992524;28;20399;-74
2024/01/25 14:02:24;;;;;;;;;;;;;;;9.48;52.67;99098.72;5016406;28;20007;-75
2024/01/25 14:05:13;;;;;;;;;;;;;;;9.40;52.57;99089.22;5003302;28;20301;-73
2024/01/25 14:08:01;;;;;;;;;;;;;;;9.36;52.00;99085.41;5005575;28;19925;-79
2024/01/25 14:10:49;;;;;;;;;;;;;;;9.48;52.12;99079.72;5023378;28;19973;-78
2024/01/25 14:13:41;;;;;;;;;;;;;;;9.52;51.69;99080.78;5024281;28;19933;-79
2024/01/25 14:16:30;;;;;;;;;;;;;;;9.58;51.31;99090.50;4994224;28;20061;-78
2024/01/25 14:19:20;;;;;;;;;;;;;;;9.51;51.41;99089.19;5006363;28;20429;-74
2024/01/25 14:22:08;;;;;;;;;;;;;;;9.56;51.18;99086.47;4979715;28;19926;-75
2024/01/25 14:25:08;;;;;;;;;;;;;;;9.66;50.77;99089.16;5010543;28;19955;-76
2024/01/25 14:27:56;;;;;;;;;;;;;;;9.59;50.37;99083.22;4991055;28;19930;-75
2024/01/25 14:30:47;;;;;;;;;;;;;;;9.55;50.78;99079.41;5008924;28;20396;-80
2024/01/25 14:33:35;;;;;;;;;;;;;;;9.40;50.79;99082.97;5001471;28;20301;-77
2024/01/25 14:36:23;;;;;;;;;;;;;;;9.46;50.76;99073.72;5007693;28;20399;-88
2024/01/25 14:39:11;;;;;;;;;;;;;;;9.44;50.79;99056.94;4997579;28;19975;-84
2024/01/25 14:41:59;;;;;;;;;;;;;;;9.39;51.01;99060.47;5001697;28;19925;-89
2024/01/25 14:44:48;;;;;;;;;;;;;;;9.46;50.92;99065.59;5001182;28;19937;-87
2024/01/25 14:47:37;;;;;;;;;;;;;;;9.21;51.88;99062.94;5001245;28;19926;-89
2024/01/25 14:50:29;;;;;;;;;;;;;;;8.92;52.77;99060.81;5015631;28;20630;-86